Time;durP1;ratioP1;P1;durP2;ratioP2;P2;SDS_P1;SDS_P2;PMS_P1;PMS_P2;Temp;Humidity;BMP_temperature;BMP_pressure;BME280_temperature;BME280_humidity;BME280_pressure;Samples;Min_cycle;Max_cycle;Signal;HPM_P1;HPM_P2
2023/10/13 00:01:52;;;;;;;13.50;6.30;;;;;;;;;;103724;1295;545692;-76
2023/10/13 00:05:34;;;;;;;12.80;7.20;;;;;;;;;;103691;1292;547774;-76
2023/10/13 00:09:05;;;;;;;15.50;7.80;;;;;;;;;;103839;1292;544836;-76
2023/10/13 00:12:49;;;;;;;14.70;7.10;;;;;;;;;;103791;1292;545420;-76
2023/10/13 00:16:28;;;;;;;16.20;6.40;;;;;;;;;;103754;1291;545440;-76
2023/10/13 00:20:00;;;;;;;13.90;6.40;;;;;;;;;;103873;1289;545240;-76
2023/10/13 00:23:52;;;;;;;13.00;7.40;;;;;;;;;;103628;1301;548372;-76
2023/10/13 00:27:29;;;;;;;13.90;7.70;;;;;;;;;;103731;1291;544988;-76
2023/10/13 00:31:00;;;;;;;13.40;7.40;;;;;;;;;;103547;1292;547867;-76
2023/10/13 00:34:36;;;;;;;12.60;7.00;;;;;;;;;;103739;1292;544946;-76
2023/10/13 00:38:12;;;;;;;14.10;6.40;;;;;;;;;;104227;1286;545155;-76
2023/10/13 00:42:06;;;;;;;15.30;7.70;;;;;;;;;;103754;1292;545020;-76
2023/10/13 00:45:33;;;;;;;14.50;8.00;;;;;;;;;;103973;1291;544767;-76
2023/10/13 00:49:15;;;;;;;15.20;8.10;;;;;;;;;;104114;1286;545040;-76
2023/10/13 00:52:51;;;;;;;14.70;7.90;;;;;;;;;;103498;1291;544840;-76
2023/10/13 00:56:30;;;;;;;16.30;7.80;;;;;;;;;;103697;1292;545201;-76
2023/10/13 01:00:18;;;;;;;14.20;8.20;;;;;;;;;;103697;1292;545361;-76
2023/10/13 01:03:38;;;;;;;13.50;8.40;;;;;;;;;;103782;1292;544425;-77
2023/10/13 01:07:22;;;;;;;18.30;8.40;;;;;;;;;;103745;1288;545159;-76
2023/10/13 01:10:58;;;;;;;14.60;7.90;;;;;;;;;;104071;1289;544797;-76
2023/10/13 01:14:36;;;;;;;15.30;8.10;;;;;;;;;;104090;1289;544773;-76
2023/10/13 01:18:16;;;;;;;16.30;8.20;;;;;;;;;;103749;1289;544888;-76
2023/10/13 01:22:01;;;;;;;17.00;9.10;;;;;;;;;;103708;1291;544766;-76
2023/10/13 01:25:34;;;;;;;15.60;9.00;;;;;;;;;;103676;1292;548183;-76
2023/10/13 01:29:14;;;;;;;15.90;8.30;;;;;;;;;;103825;1295;544856;-76
2023/10/13 01:32:50;;;;;;;15.20;8.40;;;;;;;;;;103736;1288;548030;-76
2023/10/13 01:36:21;;;;;;;13.40;8.00;;;;;;;;;;103744;1292;545005;-76
2023/10/13 01:39:58;;;;;;;17.70;9.10;;;;;;;;;;103793;1289;545064;-76
2023/10/13 01:43:35;;;;;;;15.30;9.80;;;;;;;;;;103764;1289;544966;-76
2023/10/13 01:47:13;;;;;;;15.50;9.00;;;;;;;;;;103710;1293;544844;-76
2023/10/13 01:50:55;;;;;;;17.80;8.80;;;;;;;;;;103944;1289;545480;-77
2023/10/13 01:54:28;;;;;;;17.50;8.90;;;;;;;;;;103746;1292;545749;-76
2023/10/13 01:58:13;;;;;;;17.90;9.70;;;;;;;;;;103763;1292;544717;-77
2023/10/13 02:01:41;;;;;;;15.00;9.20;;;;;;;;;;103840;1288;545053;-76
2023/10/13 02:05:32;;;;;;;15.70;8.70;;;;;;;;;;103830;1290;545042;-76
2023/10/13 02:09:15;;;;;;;15.60;8.40;;;;;;;;;;103253;1298;548128;-77
2023/10/13 02:12:44;;;;;;;17.70;8.60;;;;;;;;;;103782;1290;544589;-77
2023/10/13 02:16:20;;;;;;;15.30;9.50;;;;;;;;;;104033;1289;544992;-77
2023/10/13 02:19:54;;;;;;;19.20;10.70;;;;;;;;;;103907;1288;544777;-77
2023/10/13 02:23:43;;;;;;;17.20;10.10;;;;;;;;;;103879;1289;545142;-76
2023/10/13 02:27:14;;;;;;;14.00;9.20;;;;;;;;;;103761;1291;544968;-77
2023/10/13 02:31:03;;;;;;;16.70;9.30;;;;;;;;;;103610;1290;547929;-77
2023/10/13 02:34:34;;;;;;;15.60;10.80;;;;;;;;;;103459;1295;547811;-77
2023/10/13 02:38:11;;;;;;;15.80;9.80;;;;;;;;;;103708;1292;545469;-77
2023/10/13 02:41:48;;;;;;;17.10;10.00;;;;;;;;;;103822;1289;544787;-77
2023/10/13 02:45:27;;;;;;;18.70;10.60;;;;;;;;;;103591;1294;548045;-77
2023/10/13 02:48:57;;;;;;;14.50;10.10;;;;;;;;;;103977;1289;545396;-77
2023/10/13 02:52:41;;;;;;;16.30;11.10;;;;;;;;;;104526;1282;545011;-77
2023/10/13 02:56:20;;;;;;;19.00;11.10;;;;;;;;;;104011;1289;545681;-77
2023/10/13 03:00:11;;;;;;;18.60;10.70;;;;;;;;;;103728;1291;545209;-77
2023/10/13 03:03:34;;;;;;;20.90;11.90;;;;;;;;;;103454;1298;546627;-76
2023/10/13 03:17:35;;;;;;;15.90;10.30;;;;;;;;;;104597;1286;549942;-76
2023/10/13 03:20:31;;;;;;;18.60;11.20;;;;;;;;;;103715;1292;545012;-77
2023/10/13 03:24:07;;;;;;;16.90;11.30;;;;;;;;;;103719;1291;544834;-77
2023/10/13 03:31:17;;;;;;;19.00;11.60;;;;;;;;;;103810;1292;545358;-77
2023/10/13 03:38:45;;;;;;;19.30;11.90;;;;;;;;;;103454;1291;548120;-76
2023/10/13 03:42:18;;;;;;;16.20;11.50;;;;;;;;;;103666;1291;545253;-77
2023/10/13 03:46:00;;;;;;;20.30;12.40;;;;;;;;;;103727;1291;545330;-76
2023/10/13 03:49:30;;;;;;;19.10;11.90;;;;;;;;;;103708;1289;545288;-76
2023/10/13 03:53:12;;;;;;;16.20;10.80;;;;;;;;;;103734;1291;544922;-76
2023/10/13 03:56:45;;;;;;;16.50;12.10;;;;;;;;;;103714;1290;545442;-77
2023/10/13 04:00:30;;;;;;;22.60;13.10;;;;;;;;;;103872;1291;544768;-77
2023/10/13 04:04:09;;;;;;;19.00;11.90;;;;;;;;;;103637;1294;548028;-76
2023/10/13 04:08:44;;;;;;;20.80;12.30;;;;;;;;;;103737;1288;545300;-76
2023/10/13 04:22:20;;;;;;;20.20;12.40;;;;;;;;;;104091;1289;545415;-76
2023/10/13 04:33:17;;;;;;;19.10;12.60;;;;;;;;;;104027;1287;544724;-76
2023/10/13 04:36:45;;;;;;;22.00;12.90;;;;;;;;;;103727;1291;544882;-76
2023/10/13 04:40:18;;;;;;;18.20;11.60;;;;;;;;;;103761;1290;546328;-76
2023/10/13 04:43:56;;;;;;;16.80;11.20;;;;;;;;;;103802;1292;545076;-76
2023/10/13 04:47:41;;;;;;;20.10;11.70;;;;;;;;;;103777;1292;544899;-76
2023/10/13 04:55:09;;;;;;;20.30;11.70;;;;;;;;;;103902;1289;548013;-76
2023/10/13 05:06:13;;;;;;;17.40;11.30;;;;;;;;;;103812;1292;545218;-76
2023/10/13 06:29:40;;;;;;;24.80;14.70;;;;;;;;;;103836;1290;545008;-76
2023/10/13 06:33:18;;;;;;;26.50;14.40;;;;;;;;;;103670;1291;545409;-76
2023/10/13 06:36:55;;;;;;;21.40;13.20;;;;;;;;;;104143;1289;545418;-75
2023/10/13 06:40:42;;;;;;;21.10;13.30;;;;;;;;;;103537;1291;547975;-76
2023/10/13 06:44:15;;;;;;;18.50;12.20;;;;;;;;;;103747;1290;544938;-75
2023/10/13 06:47:52;;;;;;;16.00;11.50;;;;;;;;;;103703;1292;545009;-76
2023/10/13 06:51:30;;;;;;;19.30;10.80;;;;;;;;;;104521;1283;545423;-76
2023/10/13 06:55:05;;;;;;;20.30;11.00;;;;;;;;;;103791;1292;545501;-76
2023/10/13 06:58:43;;;;;;;19.90;10.30;;;;;;;;;;103979;1289;544864;-76
2023/10/13 07:02:23;;;;;;;21.50;10.30;;;;;;;;;;103748;1292;544811;-76
2023/10/13 07:05:58;;;;;;;17.70;10.00;;;;;;;;;;104256;1286;544813;-76
2023/10/13 07:13:13;;;;;;;21.30;9.50;;;;;;;;;;103729;1291;545826;-76
2023/10/13 07:17:00;;;;;;;17.50;9.80;;;;;;;;;;103775;1292;544807;-76
2023/10/13 07:24:10;;;;;;;16.70;8.40;;;;;;;;;;103737;1295;544874;-77
2023/10/13 07:27:40;;;;;;;19.60;8.30;;;;;;;;;;103932;1302;545758;-77
2023/10/13 07:31:20;;;;;;;17.10;7.80;;;;;;;;;;103814;1288;545095;-76
2023/10/13 07:35:05;;;;;;;14.90;7.90;;;;;;;;;;103604;1292;547967;-76
2023/10/13 07:38:37;;;;;;;12.00;7.30;;;;;;;;;;103718;1302;544962;-76
2023/10/13 07:42:19;;;;;;;13.10;7.40;;;;;;;;;;103541;1294;547978;-76
2023/10/13 07:45:51;;;;;;;13.50;6.80;;;;;;;;;;103716;1290;545949;-78
2023/10/13 07:49:31;;;;;;;12.00;6.90;;;;;;;;;;104056;1289;545107;-77
2023/10/13 07:53:22;;;;;;;13.30;7.50;;;;;;;;;;103719;1290;547848;-77
2023/10/13 07:56:40;;;;;;;11.30;7.20;;;;;;;;;;103733;1291;545328;-77
2023/10/13 08:04:14;;;;;;;10.60;6.80;;;;;;;;;;103709;1289;545283;-77
2023/10/13 08:07:32;;;;;;;12.60;6.50;;;;;;;;;;103729;1291;544970;-78
2023/10/13 08:11:34;;;;;;;11.80;7.70;;;;;;;;;;103732;1289;545066;-76
2023/10/13 08:14:47;;;;;;;13.80;8.00;;;;;;;;;;103974;1289;544783;-78
2023/10/13 08:18:30;;;;;;;11.70;8.50;;;;;;;;;;103634;1291;548663;-77
2023/10/13 08:33:16;;;;;;;11.20;7.70;;;;;;;;;;103449;1292;548025;-75
2023/10/13 08:36:32;;;;;;;12.60;8.00;;;;;;;;;;103787;1292;545054;-76
2023/10/13 08:43:51;;;;;;;12.30;6.60;;;;;;;;;;103712;1291;545002;-77
2023/10/13 08:47:36;;;;;;;12.70;7.10;;;;;;;;;;103649;1292;548078;-77
2023/10/13 08:51:12;;;;;;;10.20;7.00;;;;;;;;;;103658;1293;548415;-77
2023/10/13 08:54:45;;;;;;;11.20;7.10;;;;;;;;;;103763;1291;545584;-76
2023/10/13 08:58:29;;;;;;;10.40;5.90;;;;;;;;;;103510;1291;547955;-75
2023/10/13 09:01:59;;;;;;;8.50;5.60;;;;;;;;;;104040;1292;544805;-77
2023/10/13 09:06:00;;;;;;;9.70;6.50;;;;;;;;;;103551;1291;548101;-78
2023/10/13 09:09:26;;;;;;;9.90;6.00;;;;;;;;;;103613;1292;547820;-79
2023/10/13 09:13:01;;;;;;;10.40;5.90;;;;;;;;;;103559;1289;548110;-77
2023/10/13 09:23:45;;;;;;;9.60;5.30;;;;;;;;;;103729;1294;545914;-78
2023/10/13 09:27:16;;;;;;;9.80;5.40;;;;;;;;;;103695;1292;545931;-79
2023/10/13 09:30:59;;;;;;;11.50;5.60;;;;;;;;;;103688;1289;546357;-77
2023/10/13 09:34:40;;;;;;;11.10;5.90;;;;;;;;;;104034;1293;545457;-76
2023/10/13 09:38:15;;;;;;;9.70;4.90;;;;;;;;;;103511;1292;548004;-77
2023/10/13 09:41:53;;;;;;;12.60;5.40;;;;;;;;;;103488;1291;548005;-77
2023/10/13 09:45:36;;;;;;;9.00;4.70;;;;;;;;;;103547;1294;549187;-75
2023/10/13 09:49:07;;;;;;;12.40;5.40;;;;;;;;;;103725;1289;545948;-76
2023/10/13 09:52:45;;;;;;;10.00;5.10;;;;;;;;;;103578;1291;548082;-75
2023/10/13 09:56:20;;;;;;;9.50;5.00;;;;;;;;;;103708;1295;545248;-77
2023/10/13 09:59:57;;;;;;;8.90;5.00;;;;;;;;;;104335;1283;545116;-77
2023/10/13 10:04:07;;;;;;;8.00;4.80;;;;;;;;;;103806;1292;548113;-77
2023/10/13 10:07:23;;;;;;;9.80;5.00;;;;;;;;;;103630;1291;548627;-78
2023/10/13 10:11:08;;;;;;;9.50;4.80;;;;;;;;;;103706;1291;545111;-78
2023/10/13 10:14:47;;;;;;;7.60;4.70;;;;;;;;;;104043;1289;547817;-77
2023/10/13 10:18:02;;;;;;;9.60;5.20;;;;;;;;;;103393;1297;545579;-76
2023/10/13 10:21:38;;;;;;;9.40;4.50;;;;;;;;;;103848;1292;544872;-78
2023/10/13 10:25:28;;;;;;;8.00;4.60;;;;;;;;;;103808;1288;548097;-76
2023/10/13 10:39:17;;;;;;;7.80;4.00;;;;;;;;;;104436;1295;550584;-77
2023/10/13 10:42:17;;;;;;;9.70;4.80;;;;;;;;;;103778;1291;545013;-75
2023/10/13 10:45:50;;;;;;;11.40;4.40;;;;;;;;;;103791;1292;547849;-77
2023/10/13 10:49:29;;;;;;;21.30;5.60;;;;;;;;;;103668;1291;545611;-75
2023/10/13 10:53:08;;;;;;;13.30;5.00;;;;;;;;;;103765;1291;545003;-77
2023/10/13 10:56:38;;;;;;;11.80;4.80;;;;;;;;;;103852;1292;545304;-75
2023/10/13 11:00:19;;;;;;;9.60;4.60;;;;;;;;;;103796;1288;544958;-79
2023/10/13 11:03:57;;;;;;;9.20;4.10;;;;;;;;;;103874;1292;545383;-77
2023/10/13 11:07:31;;;;;;;8.50;4.20;;;;;;;;;;103739;1295;544841;-75
2023/10/13 11:11:17;;;;;;;9.50;3.80;;;;;;;;;;103664;1292;545073;-76
2023/10/13 11:14:50;;;;;;;11.30;3.60;;;;;;;;;;103668;1290;545171;-77
2023/10/13 11:18:40;;;;;;;8.40;3.90;;;;;;;;;;104271;1286;545567;-77
2023/10/13 11:22:11;;;;;;;10.10;3.60;;;;;;;;;;103516;1292;547816;-76
2023/10/13 11:25:44;;;;;;;11.70;3.60;;;;;;;;;;103332;1294;548231;-77
2023/10/13 11:29:19;;;;;;;9.80;3.60;;;;;;;;;;103348;1294;545468;-75
2023/10/13 11:33:07;;;;;;;11.80;4.20;;;;;;;;;;103923;1288;545190;-76
2023/10/13 11:36:32;;;;;;;9.40;3.30;;;;;;;;;;103754;1292;545184;-76
2023/10/13 11:40:43;;;;;;;8.50;3.50;;;;;;;;;;103837;1292;548040;-75
2023/10/13 11:47:47;;;;;;;8.50;3.60;;;;;;;;;;103852;1289;545072;-75
2023/10/13 11:51:05;;;;;;;8.90;4.10;;;;;;;;;;103791;1292;545348;-77
2023/10/13 11:54:41;;;;;;;7.70;3.50;;;;;;;;;;103752;1292;545543;-76
2023/10/13 11:58:17;;;;;;;9.10;3.20;;;;;;;;;;104609;1285;544985;-75
2023/10/13 12:05:48;;;;;;;8.50;3.60;;;;;;;;;;103795;1292;545254;-76
2023/10/13 12:12:48;;;;;;;11.70;4.30;;;;;;;;;;103687;1303;544855;-75
2023/10/13 12:16:34;;;;;;;8.20;3.70;;;;;;;;;;103803;1289;544961;-75
2023/10/13 12:20:10;;;;;;;8.90;3.70;;;;;;;;;;103896;1291;546012;-76
2023/10/13 12:23:57;;;;;;;10.60;3.40;;;;;;;;;;103477;1298;548058;-76
2023/10/13 12:27:35;;;;;;;9.90;3.60;;;;;;;;;;103702;1292;544770;-75
2023/10/13 12:30:53;;;;;;;8.80;3.80;;;;;;;;;;103784;1292;545143;-75
2023/10/13 12:38:36;;;;;;;12.30;4.00;;;;;;;;;;103719;1292;545156;-75
2023/10/13 12:52:40;;;;;;;11.90;4.10;;;;;;;;;;103783;1289;544989;-75
2023/10/13 12:56:15;;;;;;;8.80;4.30;;;;;;;;;;103748;1289;545559;-76
2023/10/13 12:59:53;;;;;;;11.10;4.20;;;;;;;;;;103839;1292;544772;-76
2023/10/13 13:03:44;;;;;;;11.30;4.80;;;;;;;;;;104006;1286;547838;-77
2023/10/13 13:07:14;;;;;;;12.30;4.40;;;;;;;;;;103768;1292;544906;-76
2023/10/13 13:10:55;;;;;;;8.50;3.80;;;;;;;;;;103751;1292;545102;-78
2023/10/13 13:14:29;;;;;;;9.80;4.60;;;;;;;;;;103740;1289;544984;-75
2023/10/13 13:18:15;;;;;;;11.20;4.40;;;;;;;;;;103789;1289;544983;-75
2023/10/13 13:21:44;;;;;;;9.40;4.40;;;;;;;;;;103791;1291;544964;-76
2023/10/13 13:25:42;;;;;;;10.20;4.80;;;;;;;;;;103828;1292;548089;-76
2023/10/13 13:28:55;;;;;;;13.10;4.70;;;;;;;;;;103853;1289;546111;-76
2023/10/13 13:32:40;;;;;;;11.50;4.10;;;;;;;;;;104036;1288;545577;-75
2023/10/13 13:36:13;;;;;;;10.70;4.50;;;;;;;;;;103820;1289;545173;-74
2023/10/13 13:40:13;;;;;;;12.60;4.40;;;;;;;;;;103814;1294;545368;-77
2023/10/13 13:47:17;;;;;;;11.80;4.70;;;;;;;;;;103417;1292;545485;-76
2023/10/13 13:51:04;;;;;;;10.40;4.40;;;;;;;;;;103536;1291;547803;-76
2023/10/13 13:54:28;;;;;;;16.40;10.40;;;;;;;;;;103575;1289;544802;-76
2023/10/13 13:58:07;;;;;;;17.60;5.40;;;;;;;;;;104329;1286;546124;-77
2023/10/13 14:01:44;;;;;;;30.50;14.70;;;;;;;;;;103734;1289;545014;-75
2023/10/13 14:05:19;;;;;;;13.30;4.50;;;;;;;;;;103548;1289;544981;-76
2023/10/13 14:08:59;;;;;;;11.50;5.10;;;;;;;;;;103894;1289;544811;-76
2023/10/13 14:12:41;;;;;;;12.40;4.70;;;;;;;;;;103604;1290;544763;-76
2023/10/13 14:16:16;;;;;;;13.10;5.20;;;;;;;;;;103658;1289;544627;-76
2023/10/13 14:19:55;;;;;;;48.80;30.40;;;;;;;;;;103528;1295;545363;-75
2023/10/13 14:23:27;;;;;;;18.60;6.30;;;;;;;;;;103585;1292;545236;-76
2023/10/13 14:27:17;;;;;;;10.80;5.50;;;;;;;;;;103806;1289;544729;-75
2023/10/13 14:30:41;;;;;;;28.20;8.80;;;;;;;;;;103710;1290;545012;-75
2023/10/13 14:34:21;;;;;;;14.20;6.40;;;;;;;;;;103677;1295;544979;-76
2023/10/13 14:37:56;;;;;;;16.20;5.30;;;;;;;;;;103945;1295;545939;-76
2023/10/13 14:41:39;;;;;;;14.50;5.10;;;;;;;;;;103672;1290;545229;-75
2023/10/13 14:45:16;;;;;;;10.90;4.50;;;;;;;;;;103769;1292;545015;-75
2023/10/13 14:48:51;;;;;;;11.80;4.80;;;;;;;;;;103762;1290;545077;-76
2023/10/13 14:52:22;;;;;;;14.90;5.20;;;;;;;;;;103872;1291;545626;-75
2023/10/13 14:56:05;;;;;;;12.20;4.60;;;;;;;;;;103721;1292;545672;-74
2023/10/13 14:59:41;;;;;;;13.30;5.20;;;;;;;;;;103690;1292;544899;-75
2023/10/13 15:03:18;;;;;;;11.80;4.90;;;;;;;;;;103972;1290;546326;-75
2023/10/13 15:06:56;;;;;;;11.20;5.30;;;;;;;;;;103645;1292;544880;-74
2023/10/13 15:10:33;;;;;;;15.30;5.20;;;;;;;;;;103871;1289;545025;-77
2023/10/13 15:14:33;;;;;;;14.20;5.70;;;;;;;;;;103762;1291;546052;-75
2023/10/13 15:17:48;;;;;;;10.90;5.00;;;;;;;;;;103696;1293;546063;-76
2023/10/13 15:21:28;;;;;;;11.10;5.10;;;;;;;;;;103828;1292;545194;-75
2023/10/13 15:28:53;;;;;;;13.80;5.40;;;;;;;;;;103923;1292;544814;-76
2023/10/13 15:33:00;;;;;;;10.90;5.00;;;;;;;;;;104280;1286;544878;-75
2023/10/13 15:35:56;;;;;;;10.00;4.60;;;;;;;;;;103752;1292;545142;-75
2023/10/13 15:39:32;;;;;;;13.80;4.90;;;;;;;;;;103675;1292;544802;-74
2023/10/13 15:43:10;;;;;;;12.10;5.30;;;;;;;;;;103822;1291;545032;-75
2023/10/13 15:46:49;;;;;;;16.30;6.30;;;;;;;;;;103865;1289;545338;-75
2023/10/13 15:50:29;;;;;;;14.10;5.30;;;;;;;;;;103778;1292;545862;-74
2023/10/13 15:53:59;;;;;;;15.90;5.10;;;;;;;;;;103852;1292;545581;-74
2023/10/13 15:57:52;;;;;;;14.30;5.10;;;;;;;;;;103733;1288;548309;-76
2023/10/13 16:01:23;;;;;;;12.60;5.40;;;;;;;;;;103854;1292;545224;-75
2023/10/13 16:04:59;;;;;;;12.60;5.60;;;;;;;;;;103609;1291;545055;-76
2023/10/13 16:08:45;;;;;;;14.30;5.20;;;;;;;;;;103921;1289;544795;-75
2023/10/13 16:12:15;;;;;;;15.20;5.70;;;;;;;;;;103727;1292;545660;-74
2023/10/13 16:15:52;;;;;;;14.40;5.50;;;;;;;;;;103831;1289;544884;-74
2023/10/13 16:19:29;;;;;;;13.10;5.50;;;;;;;;;;103742;1289;544744;-76
2023/10/13 16:23:05;;;;;;;14.10;5.50;;;;;;;;;;104091;1286;545293;-75
2023/10/13 16:26:58;;;;;;;14.50;6.50;;;;;;;;;;104017;1289;544820;-75
2023/10/13 16:30:16;;;;;;;13.50;6.10;;;;;;;;;;103646;1289;545805;-74
2023/10/13 16:33:59;;;;;;;15.10;6.00;;;;;;;;;;103721;1293;545309;-75
2023/10/13 16:37:44;;;;;;;16.90;5.90;;;;;;;;;;103550;1292;548034;-75
2023/10/13 16:41:15;;;;;;;12.40;5.70;;;;;;;;;;103781;1292;544842;-75
2023/10/13 16:44:51;;;;;;;12.50;5.60;;;;;;;;;;103902;1292;545244;-75
2023/10/13 16:48:35;;;;;;;13.40;5.60;;;;;;;;;;103627;1291;547766;-75
2023/10/13 16:52:07;;;;;;;14.80;5.50;;;;;;;;;;103741;1292;544893;-75
2023/10/13 16:55:45;;;;;;;16.50;6.10;;;;;;;;;;103838;1289;545056;-74
2023/10/13 16:59:24;;;;;;;14.50;5.90;;;;;;;;;;103860;1289;545305;-74
2023/10/13 17:02:59;;;;;;;16.50;5.40;;;;;;;;;;103688;1291;544862;-75
2023/10/13 17:06:36;;;;;;;17.10;5.60;;;;;;;;;;103751;1288;545648;-75
2023/10/13 17:10:14;;;;;;;16.40;5.30;;;;;;;;;;103662;1290;544954;-75
2023/10/13 17:13:51;;;;;;;12.10;5.00;;;;;;;;;;103675;1291;544976;-74
2023/10/13 17:17:29;;;;;;;13.40;5.70;;;;;;;;;;103611;1295;545112;-74
2023/10/13 17:21:17;;;;;;;16.00;6.10;;;;;;;;;;103725;1292;544778;-74
2023/10/13 17:24:43;;;;;;;14.50;6.70;;;;;;;;;;103767;1290;545669;-75
2023/10/13 17:28:26;;;;;;;14.20;6.00;;;;;;;;;;103632;1289;548126;-74
2023/10/13 17:31:58;;;;;;;14.50;5.70;;;;;;;;;;103594;1291;544767;-74
2023/10/13 17:35:36;;;;;;;13.40;5.10;;;;;;;;;;103719;1289;544937;-75
2023/10/13 17:39:17;;;;;;;16.10;6.50;;;;;;;;;;104047;1286;545483;-75
2023/10/13 17:42:52;;;;;;;13.10;5.40;;;;;;;;;;103691;1292;545858;-75
2023/10/13 17:46:29;;;;;;;15.40;5.30;;;;;;;;;;104028;1289;545445;-75
2023/10/13 17:50:09;;;;;;;11.80;5.10;;;;;;;;;;104016;1289;546198;-75
2023/10/13 17:53:45;;;;;;;11.90;5.20;;;;;;;;;;103751;1292;544850;-75
2023/10/13 17:57:21;;;;;;;11.00;5.30;;;;;;;;;;103864;1288;545295;-74
2023/10/13 18:01:04;;;;;;;15.30;6.00;;;;;;;;;;103770;1291;545017;-75
2023/10/13 18:04:36;;;;;;;15.50;6.40;;;;;;;;;;103697;1291;545650;-74
2023/10/13 18:08:13;;;;;;;15.10;6.00;;;;;;;;;;103712;1291;544919;-75
2023/10/13 18:11:51;;;;;;;15.80;6.20;;;;;;;;;;103795;1292;544957;-74
2023/10/13 18:15:29;;;;;;;12.90;5.50;;;;;;;;;;103690;1292;544791;-74
2023/10/13 18:19:07;;;;;;;15.40;6.30;;;;;;;;;;103703;1292;544915;-74
2023/10/13 18:22:43;;;;;;;13.70;6.40;;;;;;;;;;103820;1292;545625;-74
2023/10/13 18:26:20;;;;;;;14.20;6.60;;;;;;;;;;103740;1291;544874;-75
2023/10/13 18:29:58;;;;;;;14.00;5.90;;;;;;;;;;104044;1298;544817;-75
2023/10/13 18:33:58;;;;;;;14.20;5.60;;;;;;;;;;103620;1292;547766;-74
2023/10/13 18:37:13;;;;;;;13.50;5.30;;;;;;;;;;103738;1291;546136;-74
2023/10/13 18:40:57;;;;;;;14.70;4.90;;;;;;;;;;103732;1295;545947;-74
2023/10/13 18:44:28;;;;;;;12.10;5.50;;;;;;;;;;103682;1291;545010;-73
2023/10/13 18:48:06;;;;;;;11.50;5.00;;;;;;;;;;103823;1290;544728;-75
2023/10/13 18:51:44;;;;;;;13.70;4.60;;;;;;;;;;103766;1292;544899;-74
2023/10/13 18:55:26;;;;;;;12.80;5.20;;;;;;;;;;103540;1296;547904;-74
2023/10/13 18:59:02;;;;;;;12.70;5.10;;;;;;;;;;103717;1291;544880;-74
2023/10/13 19:02:35;;;;;;;11.70;5.50;;;;;;;;;;104414;1295;544626;-75
2023/10/13 19:06:15;;;;;;;13.50;5.50;;;;;;;;;;103855;1292;545046;-74
2023/10/13 19:09:50;;;;;;;13.60;5.30;;;;;;;;;;103479;1294;544998;-74
2023/10/13 19:13:28;;;;;;;12.80;4.80;;;;;;;;;;103726;1291;545376;-75
2023/10/13 19:17:05;;;;;;;13.10;5.10;;;;;;;;;;103780;1289;545505;-74
2023/10/13 19:21:03;;;;;;;11.70;4.40;;;;;;;;;;103655;1294;548302;-75
2023/10/13 19:24:20;;;;;;;14.20;4.50;;;;;;;;;;103800;1289;545862;-74
2023/10/13 19:28:03;;;;;;;14.00;4.70;;;;;;;;;;103380;1294;547850;-75
2023/10/13 19:31:34;;;;;;;12.40;4.40;;;;;;;;;;103709;1290;544847;-76
2023/10/13 19:35:12;;;;;;;15.70;4.30;;;;;;;;;;103813;1290;544843;-74
2023/10/13 19:38:51;;;;;;;11.20;4.50;;;;;;;;;;103868;1288;544991;-75
2023/10/13 19:42:27;;;;;;;16.20;4.50;;;;;;;;;;103746;1292;544966;-77
2023/10/13 19:46:04;;;;;;;17.10;4.70;;;;;;;;;;103891;1289;544940;-74
2023/10/13 19:49:47;;;;;;;11.40;4.10;;;;;;;;;;103863;1289;544892;-74
2023/10/13 19:53:31;;;;;;;15.10;4.40;;;;;;;;;;103495;1292;547765;-74
2023/10/13 19:57:04;;;;;;;11.70;4.40;;;;;;;;;;103828;1292;546190;-75
2023/10/13 20:00:40;;;;;;;13.80;4.20;;;;;;;;;;103787;1292;545231;-75
2023/10/13 20:04:18;;;;;;;15.00;4.40;;;;;;;;;;103647;1291;544986;-75
2023/10/13 20:07:55;;;;;;;11.50;4.30;;;;;;;;;;103758;1292;544931;-74
2023/10/13 20:11:35;;;;;;;10.50;3.80;;;;;;;;;;103779;1292;544822;-74
2023/10/13 20:15:10;;;;;;;13.10;4.60;;;;;;;;;;103811;1289;544969;-76
2023/10/13 20:18:57;;;;;;;13.10;6.50;;;;;;;;;;103742;1301;546464;-75
2023/10/13 20:22:31;;;;;;;11.40;4.50;;;;;;;;;;103615;1295;547869;-75
2023/10/13 20:26:06;;;;;;;10.30;4.70;;;;;;;;;;103640;1291;545427;-75
2023/10/13 20:29:39;;;;;;;12.00;4.20;;;;;;;;;;103718;1294;544855;-75
2023/10/13 20:33:20;;;;;;;13.90;4.70;;;;;;;;;;103965;1291;544772;-75
2023/10/13 20:36:54;;;;;;;11.60;4.40;;;;;;;;;;103696;1290;545063;-77
2023/10/13 20:40:38;;;;;;;10.00;4.30;;;;;;;;;;103576;1295;547903;-75
2023/10/13 20:44:09;;;;;;;12.70;4.20;;;;;;;;;;103869;1288;546100;-74
2023/10/13 20:47:51;;;;;;;14.20;4.70;;;;;;;;;;103709;1291;545049;-77
2023/10/13 20:51:24;;;;;;;12.90;4.80;;;;;;;;;;103654;1295;545374;-75
2023/10/13 20:55:07;;;;;;;10.40;4.40;;;;;;;;;;103904;1288;544802;-75
2023/10/13 20:58:48;;;;;;;12.40;4.80;;;;;;;;;;103681;1291;544994;-75
2023/10/13 21:02:22;;;;;;;13.80;4.90;;;;;;;;;;103628;1292;545424;-75
2023/10/13 21:05:59;;;;;;;11.00;4.40;;;;;;;;;;104549;1286;545422;-74
2023/10/13 21:09:37;;;;;;;13.90;4.50;;;;;;;;;;103911;1292;546134;-75
2023/10/13 21:13:14;;;;;;;10.90;3.90;;;;;;;;;;103731;1292;545201;-74
2023/10/13 21:16:52;;;;;;;12.60;4.20;;;;;;;;;;103698;1289;546006;-75
2023/10/13 21:20:29;;;;;;;11.90;4.30;;;;;;;;;;103722;1291;544863;-74
2023/10/13 21:24:09;;;;;;;11.00;4.20;;;;;;;;;;103945;1288;544741;-74
2023/10/13 21:28:00;;;;;;;10.60;4.10;;;;;;;;;;103740;1290;545044;-74
2023/10/13 21:31:31;;;;;;;13.00;4.80;;;;;;;;;;103580;1292;544773;-74
2023/10/13 21:35:07;;;;;;;12.00;4.40;;;;;;;;;;103728;1289;544962;-74
2023/10/13 21:38:46;;;;;;;11.60;4.10;;;;;;;;;;103746;1291;545427;-74
2023/10/13 21:42:22;;;;;;;11.40;4.30;;;;;;;;;;103765;1289;544876;-74
2023/10/13 21:46:04;;;;;;;13.70;4.30;;;;;;;;;;103644;1290;545222;-74
2023/10/13 21:49:37;;;;;;;9.90;4.10;;;;;;;;;;103911;1292;545758;-74
2023/10/13 21:53:15;;;;;;;12.50;4.30;;;;;;;;;;103645;1292;544955;-75
2023/10/13 21:56:52;;;;;;;9.00;3.90;;;;;;;;;;103782;1288;544968;-75
2023/10/13 22:04:10;;;;;;;14.20;4.20;;;;;;;;;;103813;1289;544759;-74
2023/10/13 22:07:46;;;;;;;12.50;4.00;;;;;;;;;;103771;1291;544986;-74
2023/10/13 22:11:22;;;;;;;10.70;4.00;;;;;;;;;;103377;1294;544772;-74
2023/10/13 22:15:02;;;;;;;13.00;4.10;;;;;;;;;;103731;1291;544972;-74
2023/10/13 22:18:37;;;;;;;11.20;3.90;;;;;;;;;;103705;1292;545426;-74
2023/10/13 22:22:14;;;;;;;13.20;4.30;;;;;;;;;;103722;1289;545327;-75
2023/10/13 22:25:51;;;;;;;11.90;3.80;;;;;;;;;;103736;1292;544729;-74
2023/10/13 22:29:29;;;;;;;14.40;4.40;;;;;;;;;;103540;1296;544875;-75
2023/10/13 22:33:07;;;;;;;12.50;3.90;;;;;;;;;;103758;1289;544989;-75
2023/10/13 22:36:44;;;;;;;10.90;4.30;;;;;;;;;;103999;1289;544785;-74
2023/10/13 22:40:22;;;;;;;14.80;4.00;;;;;;;;;;103847;1289;545060;-75
2023/10/13 22:43:59;;;;;;;11.70;4.20;;;;;;;;;;103550;1292;546597;-75
2023/10/13 22:47:42;;;;;;;11.30;3.90;;;;;;;;;;103581;1291;548109;-74
2023/10/13 22:51:15;;;;;;;11.60;4.60;;;;;;;;;;104046;1292;544962;-74
2023/10/13 22:54:52;;;;;;;10.80;3.90;;;;;;;;;;103866;1296;544998;-74
2023/10/13 22:58:29;;;;;;;12.50;4.30;;;;;;;;;;103792;1292;544778;-75
2023/10/13 23:02:14;;;;;;;12.90;4.20;;;;;;;;;;103772;1292;545021;-75
2023/10/13 23:05:51;;;;;;;11.90;4.00;;;;;;;;;;103732;1295;544883;-74
2023/10/13 23:09:24;;;;;;;10.40;4.10;;;;;;;;;;103882;1288;544984;-74
2023/10/13 23:12:55;;;;;;;12.00;3.80;;;;;;;;;;103811;1294;545028;-75
2023/10/13 23:16:45;;;;;;;12.50;3.90;;;;;;;;;;103578;1291;547811;-75
2023/10/13 23:20:20;;;;;;;9.50;4.30;;;;;;;;;;103444;1292;547824;-75
2023/10/13 23:23:53;;;;;;;9.80;3.80;;;;;;;;;;104077;1292;546377;-75
2023/10/13 23:27:28;;;;;;;12.10;4.10;;;;;;;;;;103604;1295;545337;-75
2023/10/13 23:31:09;;;;;;;14.20;4.30;;;;;;;;;;103728;1289;545686;-75
2023/10/13 23:34:44;;;;;;;14.00;4.60;;;;;;;;;;104661;1286;544990;-74
2023/10/13 23:38:28;;;;;;;13.20;4.70;;;;;;;;;;103563;1292;548210;-75
2023/10/13 23:41:59;;;;;;;11.60;4.50;;;;;;;;;;103731;1290;544985;-75
2023/10/13 23:45:43;;;;;;;12.50;4.30;;;;;;;;;;103848;1302;545059;-75
2023/10/13 23:49:18;;;;;;;10.90;4.10;;;;;;;;;;103724;1292;544759;-74
2023/10/13 23:52:55;;;;;;;9.90;4.00;;;;;;;;;;103741;1288;545492;-75
